Airfield :
LOGIN :

Register | Disclaimer

   EN    FR    IT 

 










Legend :    VFR   Marginal VFR   IFR   Intensive IFR   Very Intensive IFR
Visi :
Ceiling :
>= 8 km
>= 3000ft
5 to 8 km
1000 to 3000 ft
1500m to 5 km
500 to 1000 ft
800 to 1500m
200 to 500 ft
< 800m
< 200 ft
Symbols :   Thunderstorms  Fog  Heavy snow  Heavy precipitations  Wind > 20 kt
SIGMETs :     Misc.  Thunderstorms  Icing  Turbulence  Mountain Waves  Volcanic Ashes






- Airport Elevation : 2026 ft
- IATA code : TOJ


LETO - Madrid Torrejon

CURRENT METAR :
  • 271400Z 30003KT 270V340 9000 -RA SCT030 BKN045 08/08 Q1008 TEMPO 4000 RADZ

EXPIRED METARs :
  • 271330Z 20001KT 8000 -RA FEW015 SCT030 BKN045 08/08 Q1009 TEMPO 4000 RADZ
  • 271310Z 17005KT 140V220 5000 +RA FEW015 BKN030 BKN050 09/08 Q1009 TEMPO 4000 RADZ
  • 271300Z 20003KT 160V230 9999 DZRA FEW025 SCT035 BKN055 09/08 Q1009 TEMPO 4000 RADZ
  • 271230Z 00000KT 9999 -RA FEW025 SCT040 BKN065 09/07 Q1009 TEMPO 4000 RADZ
  • 271200Z 13004KT 100V170 9999 FEW015 SCT025 BKN040 08/08 Q1010 TEMPO 4000 RADZ
  • 271136Z 17012KT 140V200 3000 +RADZ FEW015 SCT025 BKN045 09/08 Q1010 BECMG NSW

TAF TAF LETO
Valid from the 27 at 12:00 until the 28 at 12:00 UTC


271100Z 2712/2812 VRB05KT 9999 SCT030 BKN045 TX14/2715Z TN04/2806Z
TEMPO 2712/2721 06010KT
PROB40
TEMPO 2712/2717 4000 RADZ BKN025
PROB30
TEMPO 2723/2806 4000 BR BKN012



MET'MAP, your aeronautical weather chart ! - Copyright ORBIFLY December 2007 - Disclaimer

ORBIFLY MET'MAP TEAM :

Programming & Development : Alexandra Zaïnal
Concept & original design : Baudouin d'Aumeries
Assistance for programming : Marc-Olivier Méhu
Technical & hardware support : Manuel Goepfert

Contact : metmap@orbifly.com




SOURCES & CREDITS :

   NOAA